sensor_id;sensor_type;location;lat;lon;timestamp;P1;durP1;ratioP1;P2;durP2;ratioP2
74808;SDS011;63338;39.544;2.596;2023-03-13T00:00:20;10.32;;;2.80;;
74808;SDS011;63338;39.544;2.596;2023-03-13T00:02:46;9.75;;;2.88;;
74808;SDS011;63338;39.544;2.596;2023-03-13T00:05:14;10.18;;;3.10;;
74808;SDS011;63338;39.544;2.596;2023-03-13T00:07:40;9.88;;;3.13;;
74808;SDS011;63338;39.544;2.596;2023-03-13T00:10:06;9.13;;;3.00;;
74808;SDS011;63338;39.544;2.596;2023-03-13T00:12:33;8.30;;;2.90;;
74808;SDS011;63338;39.544;2.596;2023-03-13T00:14:59;9.98;;;2.35;;
74808;SDS011;63338;39.544;2.596;2023-03-13T00:17:25;9.55;;;2.47;;
74808;SDS011;63338;39.544;2.596;2023-03-13T00:19:50;9.43;;;2.83;;
74808;SDS011;63338;39.544;2.596;2023-03-13T00:22:16;6.05;;;2.50;;
74808;SDS011;63338;39.544;2.596;2023-03-13T00:24:44;6.10;;;2.30;;
74808;SDS011;63338;39.544;2.596;2023-03-13T00:27:10;8.27;;;2.40;;
74808;SDS011;63338;39.544;2.596;2023-03-13T00:29:36;11.40;;;2.58;;
74808;SDS011;63338;39.544;2.596;2023-03-13T00:32:02;8.88;;;2.50;;
74808;SDS011;63338;39.544;2.596;2023-03-13T00:34:28;8.10;;;2.88;;
74808;SDS011;63338;39.544;2.596;2023-03-13T00:36:54;5.60;;;2.05;;
74808;SDS011;63338;39.544;2.596;2023-03-13T00:39:21;6.72;;;2.50;;
74808;SDS011;63338;39.544;2.596;2023-03-13T00:41:47;8.15;;;2.45;;
74808;SDS011;63338;39.544;2.596;2023-03-13T00:44:13;14.00;;;2.60;;
74808;SDS011;63338;39.544;2.596;2023-03-13T00:46:39;6.32;;;2.38;;
74808;SDS011;63338;39.544;2.596;2023-03-13T00:49:08;9.82;;;2.33;;
74808;SDS011;63338;39.544;2.596;2023-03-13T00:51:34;8.18;;;2.70;;
74808;SDS011;63338;39.544;2.596;2023-03-13T00:54:01;8.73;;;2.53;;
74808;SDS011;63338;39.544;2.596;2023-03-13T00:56:28;8.77;;;2.28;;
74808;SDS011;63338;39.544;2.596;2023-03-13T00:58:54;12.55;;;2.60;;
74808;SDS011;63338;39.544;2.596;2023-03-13T01:01:21;7.07;;;2.40;;
74808;SDS011;63338;39.544;2.596;2023-03-13T01:03:49;8.77;;;2.33;;
74808;SDS011;63338;39.544;2.596;2023-03-13T01:06:19;6.85;;;2.17;;
74808;SDS011;63338;39.544;2.596;2023-03-13T01:08:47;6.85;;;2.08;;
74808;SDS011;63338;39.544;2.596;2023-03-13T01:11:14;8.32;;;2.20;;
74808;SDS011;63338;39.544;2.596;2023-03-13T01:13:42;6.65;;;1.92;;
74808;SDS011;63338;39.544;2.596;2023-03-13T01:16:10;7.25;;;2.25;;
74808;SDS011;63338;39.544;2.596;2023-03-13T01:18:39;8.70;;;2.40;;
74808;SDS011;63338;39.544;2.596;2023-03-13T01:21:06;9.73;;;2.15;;
74808;SDS011;63338;39.544;2.596;2023-03-13T01:23:32;7.40;;;2.40;;
74808;SDS011;63338;39.544;2.596;2023-03-13T01:25:59;5.53;;;2.00;;
74808;SDS011;63338;39.544;2.596;2023-03-13T01:28:25;8.68;;;1.90;;
74808;SDS011;63338;39.544;2.596;2023-03-13T01:30:51;5.50;;;1.70;;
74808;SDS011;63338;39.544;2.596;2023-03-13T01:33:17;5.53;;;1.83;;
74808;SDS011;63338;39.544;2.596;2023-03-13T01:35:44;7.20;;;1.95;;
74808;SDS011;63338;39.544;2.596;2023-03-13T01:38:10;5.80;;;1.85;;
74808;SDS011;63338;39.544;2.596;2023-03-13T01:40:40;5.80;;;1.88;;
74808;SDS011;63338;39.544;2.596;2023-03-13T01:43:19;4.22;;;1.90;;
74808;SDS011;63338;39.544;2.596;2023-03-13T01:48:32;9.88;;;2.25;;
74808;SDS011;63338;39.544;2.596;2023-03-13T01:51:09;8.75;;;2.17;;
74808;SDS011;63338;39.544;2.596;2023-03-13T01:53:40;7.35;;;2.17;;
74808;SDS011;63338;39.544;2.596;2023-03-13T01:56:09;6.00;;;1.98;;
74808;SDS011;63338;39.544;2.596;2023-03-13T01:58:40;4.13;;;1.83;;
74808;SDS011;63338;39.544;2.596;2023-03-13T02:01:07;4.43;;;1.60;;
74808;SDS011;63338;39.544;2.596;2023-03-13T02:03:34;7.63;;;1.77;;
74808;SDS011;63338;39.544;2.596;2023-03-13T02:06:01;7.63;;;1.90;;
74808;SDS011;63338;39.544;2.596;2023-03-13T02:08:41;6.38;;;1.83;;
74808;SDS011;63338;39.544;2.596;2023-03-13T02:13:53;7.18;;;2.00;;
74808;SDS011;63338;39.544;2.596;2023-03-13T02:16:21;3.05;;;1.38;;
74808;SDS011;63338;39.544;2.596;2023-03-13T02:18:49;5.55;;;1.98;;
74808;SDS011;63338;39.544;2.596;2023-03-13T02:21:18;4.60;;;1.75;;
74808;SDS011;63338;39.544;2.596;2023-03-13T02:23:48;5.07;;;1.40;;
74808;SDS011;63338;39.544;2.596;2023-03-13T02:26:21;4.78;;;1.88;;
74808;SDS011;63338;39.544;2.596;2023-03-13T02:28:47;6.97;;;1.95;;
74808;SDS011;63338;39.544;2.596;2023-03-13T02:31:14;6.63;;;1.90;;
74808;SDS011;63338;39.544;2.596;2023-03-13T02:33:41;5.25;;;2.13;;
74808;SDS011;63338;39.544;2.596;2023-03-13T02:36:08;6.82;;;1.90;;
74808;SDS011;63338;39.544;2.596;2023-03-13T02:38:43;6.40;;;2.60;;
74808;SDS011;63338;39.544;2.596;2023-03-13T02:41:19;4.35;;;1.60;;
74808;SDS011;63338;39.544;2.596;2023-03-13T02:43:47;6.53;;;1.88;;
74808;SDS011;63338;39.544;2.596;2023-03-13T02:46:14;6.30;;;2.13;;
74808;SDS011;63338;39.544;2.596;2023-03-13T02:48:47;6.45;;;1.67;;
74808;SDS011;63338;39.544;2.596;2023-03-13T02:51:24;4.32;;;1.75;;
74808;SDS011;63338;39.544;2.596;2023-03-13T02:54:08;6.80;;;2.03;;
74808;SDS011;63338;39.544;2.596;2023-03-13T02:56:39;8.77;;;1.83;;
74808;SDS011;63338;39.544;2.596;2023-03-13T02:59:07;7.35;;;2.08;;
74808;SDS011;63338;39.544;2.596;2023-03-13T03:01:33;5.97;;;1.90;;
74808;SDS011;63338;39.544;2.596;2023-03-13T03:03:59;5.25;;;1.75;;
74808;SDS011;63338;39.544;2.596;2023-03-13T03:06:24;6.85;;;1.83;;
74808;SDS011;63338;39.544;2.596;2023-03-13T03:08:51;5.43;;;2.20;;
74808;SDS011;63338;39.544;2.596;2023-03-13T03:11:17;4.90;;;1.60;;
74808;SDS011;63338;39.544;2.596;2023-03-13T03:13:43;5.18;;;1.80;;
74808;SDS011;63338;39.544;2.596;2023-03-13T03:16:11;4.30;;;1.50;;
74808;SDS011;63338;39.544;2.596;2023-03-13T03:18:43;4.53;;;1.88;;
74808;SDS011;63338;39.544;2.596;2023-03-13T03:21:09;4.03;;;1.65;;
74808;SDS011;63338;39.544;2.596;2023-03-13T03:23:35;3.20;;;1.50;;
74808;SDS011;63338;39.544;2.596;2023-03-13T03:26:02;3.50;;;1.10;;
74808;SDS011;63338;39.544;2.596;2023-03-13T03:28:29;4.22;;;1.40;;
74808;SDS011;63338;39.544;2.596;2023-03-13T03:30:55;2.75;;;1.20;;
74808;SDS011;63338;39.544;2.596;2023-03-13T03:33:22;5.90;;;1.48;;
74808;SDS011;63338;39.544;2.596;2023-03-13T03:35:49;4.82;;;1.60;;
74808;SDS011;63338;39.544;2.596;2023-03-13T03:38:16;4.70;;;1.60;;
74808;SDS011;63338;39.544;2.596;2023-03-13T03:40:42;4.28;;;1.70;;
74808;SDS011;63338;39.544;2.596;2023-03-13T03:43:08;6.00;;;1.67;;
74808;SDS011;63338;39.544;2.596;2023-03-13T03:45:34;5.50;;;1.30;;
74808;SDS011;63338;39.544;2.596;2023-03-13T03:48:00;5.30;;;1.40;;
74808;SDS011;63338;39.544;2.596;2023-03-13T03:50:26;6.00;;;1.50;;
74808;SDS011;63338;39.544;2.596;2023-03-13T03:52:52;2.92;;;1.42;;
74808;SDS011;63338;39.544;2.596;2023-03-13T03:55:18;4.65;;;1.27;;
74808;SDS011;63338;39.544;2.596;2023-03-13T03:57:44;2.55;;;1.20;;
74808;SDS011;63338;39.544;2.596;2023-03-13T04:00:11;2.90;;;1.40;;
74808;SDS011;63338;39.544;2.596;2023-03-13T04:02:40;4.63;;;1.67;;
74808;SDS011;63338;39.544;2.596;2023-03-13T04:05:07;3.17;;;1.45;;
74808;SDS011;63338;39.544;2.596;2023-03-13T04:07:33;4.05;;;1.40;;
74808;SDS011;63338;39.544;2.596;2023-03-13T04:09:58;4.93;;;1.55;;
74808;SDS011;63338;39.544;2.596;2023-03-13T04:12:25;6.72;;;1.30;;
74808;SDS011;63338;39.544;2.596;2023-03-13T04:14:51;3.20;;;1.33;;
74808;SDS011;63338;39.544;2.596;2023-03-13T04:17:17;3.42;;;1.45;;
74808;SDS011;63338;39.544;2.596;2023-03-13T04:19:43;9.05;;;1.92;;
74808;SDS011;63338;39.544;2.596;2023-03-13T04:22:09;3.33;;;1.30;;
74808;SDS011;63338;39.544;2.596;2023-03-13T04:24:35;5.00;;;1.60;;
74808;SDS011;63338;39.544;2.596;2023-03-13T04:27:01;5.45;;;1.70;;
74808;SDS011;63338;39.544;2.596;2023-03-13T04:29:31;5.32;;;1.80;;
74808;SDS011;63338;39.544;2.596;2023-03-13T04:31:57;6.15;;;1.80;;
74808;SDS011;63338;39.544;2.596;2023-03-13T04:34:23;4.93;;;1.75;;
74808;SDS011;63338;39.544;2.596;2023-03-13T04:36:49;5.00;;;2.00;;
74808;SDS011;63338;39.544;2.596;2023-03-13T04:39:15;6.82;;;1.80;;
74808;SDS011;63338;39.544;2.596;2023-03-13T04:41:41;6.30;;;2.40;;
74808;SDS011;63338;39.544;2.596;2023-03-13T04:44:08;6.18;;;1.80;;
74808;SDS011;63338;39.544;2.596;2023-03-13T04:46:33;7.15;;;1.83;;
74808;SDS011;63338;39.544;2.596;2023-03-13T04:49:00;4.63;;;1.63;;
74808;SDS011;63338;39.544;2.596;2023-03-13T04:51:25;7.53;;;3.17;;
74808;SDS011;63338;39.544;2.596;2023-03-13T04:53:52;5.15;;;2.20;;
74808;SDS011;63338;39.544;2.596;2023-03-13T04:56:24;5.20;;;2.00;;
74808;SDS011;63338;39.544;2.596;2023-03-13T04:58:51;6.22;;;2.05;;
74808;SDS011;63338;39.544;2.596;2023-03-13T05:01:17;5.45;;;2.30;;
74808;SDS011;63338;39.544;2.596;2023-03-13T05:03:43;7.55;;;2.00;;
74808;SDS011;63338;39.544;2.596;2023-03-13T05:06:09;8.35;;;2.55;;
74808;SDS011;63338;39.544;2.596;2023-03-13T05:08:36;4.18;;;1.80;;
74808;SDS011;63338;39.544;2.596;2023-03-13T05:11:02;7.95;;;2.50;;
74808;SDS011;63338;39.544;2.596;2023-03-13T05:13:29;5.32;;;2.28;;
74808;SDS011;63338;39.544;2.596;2023-03-13T05:15:55;6.82;;;2.30;;
74808;SDS011;63338;39.544;2.596;2023-03-13T05:18:21;10.38;;;2.53;;
74808;SDS011;63338;39.544;2.596;2023-03-13T05:20:47;5.88;;;2.08;;
74808;SDS011;63338;39.544;2.596;2023-03-13T05:23:13;5.35;;;1.85;;
74808;SDS011;63338;39.544;2.596;2023-03-13T05:25:39;7.40;;;2.50;;
74808;SDS011;63338;39.544;2.596;2023-03-13T05:28:06;8.65;;;2.35;;
74808;SDS011;63338;39.544;2.596;2023-03-13T05:30:32;7.38;;;2.58;;
74808;SDS011;63338;39.544;2.596;2023-03-13T05:32:58;5.35;;;2.03;;
74808;SDS011;63338;39.544;2.596;2023-03-13T05:35:24;9.57;;;2.90;;
74808;SDS011;63338;39.544;2.596;2023-03-13T05:37:50;9.02;;;2.60;;
74808;SDS011;63338;39.544;2.596;2023-03-13T05:40:16;7.15;;;2.85;;
74808;SDS011;63338;39.544;2.596;2023-03-13T05:42:43;10.13;;;2.70;;
74808;SDS011;63338;39.544;2.596;2023-03-13T05:45:09;5.47;;;2.65;;
74808;SDS011;63338;39.544;2.596;2023-03-13T05:47:36;6.95;;;2.92;;
74808;SDS011;63338;39.544;2.596;2023-03-13T05:50:04;9.90;;;2.90;;
74808;SDS011;63338;39.544;2.596;2023-03-13T05:52:31;8.30;;;3.20;;
74808;SDS011;63338;39.544;2.596;2023-03-13T05:54:58;8.52;;;3.30;;
74808;SDS011;63338;39.544;2.596;2023-03-13T05:57:23;7.22;;;2.95;;
74808;SDS011;63338;39.544;2.596;2023-03-13T05:59:50;10.05;;;3.08;;
74808;SDS011;63338;39.544;2.596;2023-03-13T06:02:16;10.80;;;3.05;;
74808;SDS011;63338;39.544;2.596;2023-03-13T06:04:42;7.25;;;2.72;;
74808;SDS011;63338;39.544;2.596;2023-03-13T06:07:08;13.77;;;5.15;;
74808;SDS011;63338;39.544;2.596;2023-03-13T06:09:34;9.23;;;2.90;;
74808;SDS011;63338;39.544;2.596;2023-03-13T06:12:00;8.75;;;3.40;;
74808;SDS011;63338;39.544;2.596;2023-03-13T06:14:26;7.95;;;3.00;;
74808;SDS011;63338;39.544;2.596;2023-03-13T06:16:54;8.65;;;3.22;;
74808;SDS011;63338;39.544;2.596;2023-03-13T06:19:20;8.60;;;3.40;;
74808;SDS011;63338;39.544;2.596;2023-03-13T06:21:48;7.72;;;3.03;;
74808;SDS011;63338;39.544;2.596;2023-03-13T06:24:14;8.75;;;3.05;;
74808;SDS011;63338;39.544;2.596;2023-03-13T06:26:41;10.05;;;3.30;;
74808;SDS011;63338;39.544;2.596;2023-03-13T06:29:07;8.52;;;3.50;;
74808;SDS011;63338;39.544;2.596;2023-03-13T06:31:34;7.55;;;3.22;;
74808;SDS011;63338;39.544;2.596;2023-03-13T06:34:00;9.68;;;3.33;;
74808;SDS011;63338;39.544;2.596;2023-03-13T06:36:26;6.95;;;2.72;;
74808;SDS011;63338;39.544;2.596;2023-03-13T06:38:52;9.50;;;3.13;;
74808;SDS011;63338;39.544;2.596;2023-03-13T06:41:19;7.70;;;2.85;;
74808;SDS011;63338;39.544;2.596;2023-03-13T06:43:45;9.43;;;3.30;;
74808;SDS011;63338;39.544;2.596;2023-03-13T06:46:15;8.32;;;3.00;;
74808;SDS011;63338;39.544;2.596;2023-03-13T06:48:43;12.40;;;3.30;;
74808;SDS011;63338;39.544;2.596;2023-03-13T06:51:11;9.98;;;3.15;;
74808;SDS011;63338;39.544;2.596;2023-03-13T06:53:38;10.25;;;3.80;;
74808;SDS011;63338;39.544;2.596;2023-03-13T06:56:04;9.20;;;3.50;;
74808;SDS011;63338;39.544;2.596;2023-03-13T06:58:31;13.65;;;3.65;;
74808;SDS011;63338;39.544;2.596;2023-03-13T07:00:57;9.48;;;3.10;;
74808;SDS011;63338;39.544;2.596;2023-03-13T07:03:35;12.98;;;3.35;;
74808;SDS011;63338;39.544;2.596;2023-03-13T07:06:02;8.98;;;3.50;;
74808;SDS011;63338;39.544;2.596;2023-03-13T07:08:30;8.60;;;3.47;;
74808;SDS011;63338;39.544;2.596;2023-03-13T07:10:58;13.95;;;3.50;;
74808;SDS011;63338;39.544;2.596;2023-03-13T07:13:25;8.73;;;3.65;;
74808;SDS011;63338;39.544;2.596;2023-03-13T07:15:51;8.10;;;3.95;;
74808;SDS011;63338;39.544;2.596;2023-03-13T07:18:19;7.35;;;3.17;;
74808;SDS011;63338;39.544;2.596;2023-03-13T07:20:53;12.93;;;4.03;;
74808;SDS011;63338;39.544;2.596;2023-03-13T07:23:20;12.07;;;3.80;;
74808;SDS011;63338;39.544;2.596;2023-03-13T07:25:57;9.15;;;3.78;;
74808;SDS011;63338;39.544;2.596;2023-03-13T07:28:25;9.90;;;3.90;;
74808;SDS011;63338;39.544;2.596;2023-03-13T07:30:52;15.27;;;4.63;;
74808;SDS011;63338;39.544;2.596;2023-03-13T07:33:18;9.65;;;4.00;;
74808;SDS011;63338;39.544;2.596;2023-03-13T07:35:50;11.85;;;4.40;;
74808;SDS011;63338;39.544;2.596;2023-03-13T07:38:20;16.52;;;4.53;;
74808;SDS011;63338;39.544;2.596;2023-03-13T07:43:19;10.73;;;4.85;;
74808;SDS011;63338;39.544;2.596;2023-03-13T07:45:58;12.15;;;4.75;;
74808;SDS011;63338;39.544;2.596;2023-03-13T07:48:33;15.00;;;4.60;;
74808;SDS011;63338;39.544;2.596;2023-03-13T07:51:00;11.20;;;4.63;;
74808;SDS011;63338;39.544;2.596;2023-03-13T07:53:28;12.60;;;5.05;;
74808;SDS011;63338;39.544;2.596;2023-03-13T07:55:55;10.57;;;4.93;;
74808;SDS011;63338;39.544;2.596;2023-03-13T07:58:27;12.25;;;4.63;;
74808;SDS011;63338;39.544;2.596;2023-03-13T08:00:55;15.27;;;4.63;;
74808;SDS011;63338;39.544;2.596;2023-03-13T08:03:22;9.90;;;4.30;;
74808;SDS011;63338;39.544;2.596;2023-03-13T08:05:58;13.55;;;3.90;;
74808;SDS011;63338;39.544;2.596;2023-03-13T08:08:25;10.75;;;4.22;;
74808;SDS011;63338;39.544;2.596;2023-03-13T08:10:51;13.68;;;3.83;;
74808;SDS011;63338;39.544;2.596;2023-03-13T08:13:18;11.35;;;4.03;;
74808;SDS011;63338;39.544;2.596;2023-03-13T08:15:44;9.05;;;3.72;;
74808;SDS011;63338;39.544;2.596;2023-03-13T08:18:10;9.80;;;3.83;;
74808;SDS011;63338;39.544;2.596;2023-03-13T08:20:35;13.35;;;4.00;;
74808;SDS011;63338;39.544;2.596;2023-03-13T08:23:02;17.20;;;4.20;;
74808;SDS011;63338;39.544;2.596;2023-03-13T08:25:28;12.85;;;3.55;;
74808;SDS011;63338;39.544;2.596;2023-03-13T08:27:54;16.70;;;3.90;;
74808;SDS011;63338;39.544;2.596;2023-03-13T08:30:20;9.63;;;3.35;;
74808;SDS011;63338;39.544;2.596;2023-03-13T08:32:49;11.15;;;3.17;;
74808;SDS011;63338;39.544;2.596;2023-03-13T08:35:15;10.00;;;3.63;;
74808;SDS011;63338;39.544;2.596;2023-03-13T08:37:41;7.47;;;2.33;;
74808;SDS011;63338;39.544;2.596;2023-03-13T08:40:07;7.47;;;2.25;;
74808;SDS011;63338;39.544;2.596;2023-03-13T08:42:37;7.22;;;1.98;;
74808;SDS011;63338;39.544;2.596;2023-03-13T08:45:05;8.10;;;4.15;;
74808;SDS011;63338;39.544;2.596;2023-03-13T08:47:31;7.40;;;2.13;;
74808;SDS011;63338;39.544;2.596;2023-03-13T08:49:57;11.20;;;3.50;;
74808;SDS011;63338;39.544;2.596;2023-03-13T08:52:23;8.23;;;2.22;;
74808;SDS011;63338;39.544;2.596;2023-03-13T08:54:49;8.10;;;2.15;;
74808;SDS011;63338;39.544;2.596;2023-03-13T08:57:15;9.18;;;2.53;;
74808;SDS011;63338;39.544;2.596;2023-03-13T08:59:44;8.48;;;2.40;;
74808;SDS011;63338;39.544;2.596;2023-03-13T09:02:10;8.35;;;3.10;;
74808;SDS011;63338;39.544;2.596;2023-03-13T09:04:36;6.70;;;2.10;;
74808;SDS011;63338;39.544;2.596;2023-03-13T09:07:02;7.30;;;2.00;;
74808;SDS011;63338;39.544;2.596;2023-03-13T09:09:28;11.07;;;2.63;;
74808;SDS011;63338;39.544;2.596;2023-03-13T09:11:54;7.95;;;2.25;;
74808;SDS011;63338;39.544;2.596;2023-03-13T09:14:20;12.27;;;2.50;;
74808;SDS011;63338;39.544;2.596;2023-03-13T09:16:46;5.90;;;2.17;;
74808;SDS011;63338;39.544;2.596;2023-03-13T09:19:12;8.93;;;2.03;;
74808;SDS011;63338;39.544;2.596;2023-03-13T09:21:39;6.60;;;1.95;;
74808;SDS011;63338;39.544;2.596;2023-03-13T09:24:06;8.77;;;2.17;;
74808;SDS011;63338;39.544;2.596;2023-03-13T09:26:34;9.38;;;1.58;;
74808;SDS011;63338;39.544;2.596;2023-03-13T09:29:00;8.15;;;1.90;;
74808;SDS011;63338;39.544;2.596;2023-03-13T09:31:27;5.88;;;1.83;;
74808;SDS011;63338;39.544;2.596;2023-03-13T09:33:54;7.63;;;1.80;;
74808;SDS011;63338;39.544;2.596;2023-03-13T09:36:21;9.55;;;2.05;;
74808;SDS011;63338;39.544;2.596;2023-03-13T09:38:55;6.05;;;1.90;;
74808;SDS011;63338;39.544;2.596;2023-03-13T09:41:28;6.35;;;1.75;;
74808;SDS011;63338;39.544;2.596;2023-03-13T09:46:53;5.65;;;1.27;;
74808;SDS011;63338;39.544;2.596;2023-03-13T09:49:48;6.85;;;1.65;;
74808;SDS011;63338;39.544;2.596;2023-03-13T09:52:32;4.35;;;1.38;;
74808;SDS011;63338;39.544;2.596;2023-03-13T09:57:39;5.90;;;1.88;;
74808;SDS011;63338;39.544;2.596;2023-03-13T10:00:23;5.70;;;1.50;;
74808;SDS011;63338;39.544;2.596;2023-03-13T10:02:55;7.60;;;1.70;;
74808;SDS011;63338;39.544;2.596;2023-03-13T10:05:27;4.28;;;1.17;;
74808;SDS011;63338;39.544;2.596;2023-03-13T10:07:58;6.53;;;1.60;;
74808;SDS011;63338;39.544;2.596;2023-03-13T10:13:02;5.20;;;1.27;;
74808;SDS011;63338;39.544;2.596;2023-03-13T10:18:19;5.72;;;1.58;;
74808;SDS011;63338;39.544;2.596;2023-03-13T10:21:31;6.18;;;1.50;;
74808;SDS011;63338;39.544;2.596;2023-03-13T10:26:28;4.97;;;1.55;;
74808;SDS011;63338;39.544;2.596;2023-03-13T10:29:00;6.15;;;1.67;;
74808;SDS011;63338;39.544;2.596;2023-03-13T10:31:55;7.03;;;1.55;;
74808;SDS011;63338;39.544;2.596;2023-03-13T10:34:26;5.72;;;1.40;;
74808;SDS011;63338;39.544;2.596;2023-03-13T10:36:57;5.03;;;1.63;;
74808;SDS011;63338;39.544;2.596;2023-03-13T10:39:26;7.15;;;1.80;;
74808;SDS011;63338;39.544;2.596;2023-03-13T10:41:57;6.20;;;1.65;;
74808;SDS011;63338;39.544;2.596;2023-03-13T10:44:34;7.70;;;1.33;;
74808;SDS011;63338;39.544;2.596;2023-03-13T10:47:00;5.18;;;1.77;;
74808;SDS011;63338;39.544;2.596;2023-03-13T10:49:29;5.72;;;1.60;;
74808;SDS011;63338;39.544;2.596;2023-03-13T10:52:00;5.60;;;1.60;;
74808;SDS011;63338;39.544;2.596;2023-03-13T10:54:34;5.93;;;1.63;;
74808;SDS011;63338;39.544;2.596;2023-03-13T11:03:22;7.43;;;1.67;;
74808;SDS011;63338;39.544;2.596;2023-03-13T11:05:57;6.18;;;1.98;;
74808;SDS011;63338;39.544;2.596;2023-03-13T11:08:28;6.57;;;1.48;;
74808;SDS011;63338;39.544;2.596;2023-03-13T11:11:01;10.70;;;1.70;;
74808;SDS011;63338;39.544;2.596;2023-03-13T11:16:25;5.20;;;1.40;;
74808;SDS011;63338;39.544;2.596;2023-03-13T11:41:30;5.13;;;1.10;;
74808;SDS011;63338;39.544;2.596;2023-03-13T12:00:14;7.05;;;1.42;;
74808;SDS011;63338;39.544;2.596;2023-03-13T12:02:43;8.18;;;1.60;;
74808;SDS011;63338;39.544;2.596;2023-03-13T12:05:17;9.05;;;1.77;;
74808;SDS011;63338;39.544;2.596;2023-03-13T12:13:28;7.65;;;1.90;;
74808;SDS011;63338;39.544;2.596;2023-03-13T12:16:19;6.40;;;1.80;;
74808;SDS011;63338;39.544;2.596;2023-03-13T12:18:49;5.82;;;2.10;;
74808;SDS011;63338;39.544;2.596;2023-03-13T12:24:03;9.23;;;2.45;;
74808;SDS011;63338;39.544;2.596;2023-03-13T12:29:20;6.70;;;2.70;;
74808;SDS011;63338;39.544;2.596;2023-03-13T12:32:11;6.00;;;1.80;;
74808;SDS011;63338;39.544;2.596;2023-03-13T12:35:14;6.68;;;2.15;;
74808;SDS011;63338;39.544;2.596;2023-03-13T12:37:45;11.52;;;3.40;;
74808;SDS011;63338;39.544;2.596;2023-03-13T12:40:34;10.27;;;3.10;;
74808;SDS011;63338;39.544;2.596;2023-03-13T12:43:13;8.05;;;3.20;;
74808;SDS011;63338;39.544;2.596;2023-03-13T12:45:53;13.23;;;3.40;;
74808;SDS011;63338;39.544;2.596;2023-03-13T12:51:39;14.38;;;3.53;;
74808;SDS011;63338;39.544;2.596;2023-03-13T12:57:17;8.18;;;3.00;;
74808;SDS011;63338;39.544;2.596;2023-03-13T13:00:12;9.77;;;3.05;;
74808;SDS011;63338;39.544;2.596;2023-03-13T13:02:59;12.75;;;3.03;;
74808;SDS011;63338;39.544;2.596;2023-03-13T13:05:32;7.32;;;3.10;;
74808;SDS011;63338;39.544;2.596;2023-03-13T13:08:01;11.70;;;3.30;;
74808;SDS011;63338;39.544;2.596;2023-03-13T13:10:27;9.43;;;2.83;;
74808;SDS011;63338;39.544;2.596;2023-03-13T13:16:01;8.75;;;2.58;;
74808;SDS011;63338;39.544;2.596;2023-03-13T13:18:31;14.25;;;3.90;;
74808;SDS011;63338;39.544;2.596;2023-03-13T13:23:28;13.25;;;3.25;;
74808;SDS011;63338;39.544;2.596;2023-03-13T13:36:54;10.25;;;3.20;;
74808;SDS011;63338;39.544;2.596;2023-03-13T13:47:41;13.70;;;2.90;;
74808;SDS011;63338;39.544;2.596;2023-03-13T13:50:23;10.13;;;3.00;;
74808;SDS011;63338;39.544;2.596;2023-03-13T13:52:50;11.23;;;2.80;;
74808;SDS011;63338;39.544;2.596;2023-03-13T13:58:05;8.90;;;2.53;;
74808;SDS011;63338;39.544;2.596;2023-03-13T14:00:54;11.10;;;2.70;;
74808;SDS011;63338;39.544;2.596;2023-03-13T14:03:27;12.23;;;2.63;;
74808;SDS011;63338;39.544;2.596;2023-03-13T14:05:58;10.93;;;2.50;;
74808;SDS011;63338;39.544;2.596;2023-03-13T14:08:29;11.45;;;2.72;;
74808;SDS011;63338;39.544;2.596;2023-03-13T14:13:39;9.10;;;2.03;;
74808;SDS011;63338;39.544;2.596;2023-03-13T14:16:13;15.02;;;4.22;;
74808;SDS011;63338;39.544;2.596;2023-03-13T14:18:51;20.75;;;10.02;;
74808;SDS011;63338;39.544;2.596;2023-03-13T14:21:23;11.23;;;3.80;;
74808;SDS011;63338;39.544;2.596;2023-03-13T14:23:51;9.07;;;3.22;;
74808;SDS011;63338;39.544;2.596;2023-03-13T14:31:23;8.10;;;2.50;;
74808;SDS011;63338;39.544;2.596;2023-03-13T14:33:56;11.85;;;3.08;;
74808;SDS011;63338;39.544;2.596;2023-03-13T14:36:24;9.00;;;2.50;;
74808;SDS011;63338;39.544;2.596;2023-03-13T14:38:54;9.65;;;2.42;;
74808;SDS011;63338;39.544;2.596;2023-03-13T14:44:13;5.93;;;2.05;;
74808;SDS011;63338;39.544;2.596;2023-03-13T14:46:55;8.85;;;2.20;;
74808;SDS011;63338;39.544;2.596;2023-03-13T14:49:25;9.15;;;2.50;;
74808;SDS011;63338;39.544;2.596;2023-03-13T14:52:13;7.63;;;2.05;;
74808;SDS011;63338;39.544;2.596;2023-03-13T14:54:51;7.78;;;2.22;;
74808;SDS011;63338;39.544;2.596;2023-03-13T14:57:25;8.25;;;2.50;;
74808;SDS011;63338;39.544;2.596;2023-03-13T14:59:53;7.30;;;2.55;;
74808;SDS011;63338;39.544;2.596;2023-03-13T15:07:24;10.02;;;3.05;;
74808;SDS011;63338;39.544;2.596;2023-03-13T15:09:52;7.90;;;2.33;;
74808;SDS011;63338;39.544;2.596;2023-03-13T15:12:22;7.60;;;2.53;;
74808;SDS011;63338;39.544;2.596;2023-03-13T15:14:49;11.00;;;2.95;;
74808;SDS011;63338;39.544;2.596;2023-03-13T15:17:23;8.75;;;2.17;;
74808;SDS011;63338;39.544;2.596;2023-03-13T15:19:54;11.07;;;2.92;;
74808;SDS011;63338;39.544;2.596;2023-03-13T15:22:28;8.13;;;2.80;;
74808;SDS011;63338;39.544;2.596;2023-03-13T15:24:56;11.02;;;3.60;;
74808;SDS011;63338;39.544;2.596;2023-03-13T15:27:23;10.23;;;2.80;;
74808;SDS011;63338;39.544;2.596;2023-03-13T15:29:50;8.65;;;2.35;;
74808;SDS011;63338;39.544;2.596;2023-03-13T15:32:30;11.10;;;2.92;;
74808;SDS011;63338;39.544;2.596;2023-03-13T15:35:06;10.95;;;2.60;;
74808;SDS011;63338;39.544;2.596;2023-03-13T15:37:48;8.40;;;2.35;;
74808;SDS011;63338;39.544;2.596;2023-03-13T15:40:14;9.45;;;2.38;;
74808;SDS011;63338;39.544;2.596;2023-03-13T15:42:41;9.52;;;2.55;;
74808;SDS011;63338;39.544;2.596;2023-03-13T15:45:09;9.82;;;2.85;;
74808;SDS011;63338;39.544;2.596;2023-03-13T15:47:35;8.57;;;2.53;;
74808;SDS011;63338;39.544;2.596;2023-03-13T15:50:02;8.80;;;2.90;;
74808;SDS011;63338;39.544;2.596;2023-03-13T15:52:34;14.73;;;3.15;;
74808;SDS011;63338;39.544;2.596;2023-03-13T15:55:00;10.20;;;2.78;;
74808;SDS011;63338;39.544;2.596;2023-03-13T15:57:26;11.65;;;2.90;;
74808;SDS011;63338;39.544;2.596;2023-03-13T15:59:53;10.07;;;2.92;;
74808;SDS011;63338;39.544;2.596;2023-03-13T16:02:20;9.73;;;2.42;;
74808;SDS011;63338;39.544;2.596;2023-03-13T16:04:47;8.55;;;3.00;;
74808;SDS011;63338;39.544;2.596;2023-03-13T16:07:14;8.80;;;3.20;;
74808;SDS011;63338;39.544;2.596;2023-03-13T16:09:44;9.25;;;2.67;;
74808;SDS011;63338;39.544;2.596;2023-03-13T16:12:10;10.63;;;2.97;;
74808;SDS011;63338;39.544;2.596;2023-03-13T16:14:37;9.05;;;2.85;;
74808;SDS011;63338;39.544;2.596;2023-03-13T16:17:37;9.10;;;2.38;;
74808;SDS011;63338;39.544;2.596;2023-03-13T16:19:56;10.90;;;2.97;;
74808;SDS011;63338;39.544;2.596;2023-03-13T16:22:22;7.50;;;2.70;;
74808;SDS011;63338;39.544;2.596;2023-03-13T16:24:49;9.80;;;3.05;;
74808;SDS011;63338;39.544;2.596;2023-03-13T16:27:15;7.28;;;3.10;;
74808;SDS011;63338;39.544;2.596;2023-03-13T16:29:43;11.02;;;2.90;;
74808;SDS011;63338;39.544;2.596;2023-03-13T16:32:10;7.82;;;2.63;;
74808;SDS011;63338;39.544;2.596;2023-03-13T16:34:39;11.13;;;2.53;;
74808;SDS011;63338;39.544;2.596;2023-03-13T16:37:15;9.52;;;3.22;;
74808;SDS011;63338;39.544;2.596;2023-03-13T16:39:43;8.77;;;2.42;;
74808;SDS011;63338;39.544;2.596;2023-03-13T16:42:10;9.13;;;2.60;;
74808;SDS011;63338;39.544;2.596;2023-03-13T16:44:39;7.50;;;2.40;;
74808;SDS011;63338;39.544;2.596;2023-03-13T16:47:14;7.50;;;2.42;;
74808;SDS011;63338;39.544;2.596;2023-03-13T16:49:44;6.93;;;2.30;;
74808;SDS011;63338;39.544;2.596;2023-03-13T16:52:14;6.93;;;2.40;;
74808;SDS011;63338;39.544;2.596;2023-03-13T16:54:41;9.32;;;2.70;;
74808;SDS011;63338;39.544;2.596;2023-03-13T16:57:14;9.50;;;3.00;;
74808;SDS011;63338;39.544;2.596;2023-03-13T16:59:44;6.95;;;2.20;;
74808;SDS011;63338;39.544;2.596;2023-03-13T17:02:13;6.60;;;2.20;;
74808;SDS011;63338;39.544;2.596;2023-03-13T17:04:41;6.53;;;2.33;;
74808;SDS011;63338;39.544;2.596;2023-03-13T17:07:19;6.05;;;2.28;;